createdAt,value
2018-04-23T00:01:43.213Z,5.30
2018-04-23T00:04:10.841Z,8.13
2018-04-23T00:06:38.475Z,6.50
2018-04-23T00:09:06.131Z,6.07
2018-04-23T00:11:33.744Z,7.17
2018-04-23T00:14:01.337Z,6.83
2018-04-23T00:16:28.909Z,6.77
2018-04-23T00:18:56.526Z,6.00
2018-04-23T00:21:24.145Z,7.00
2018-04-23T00:23:51.718Z,6.23
2018-04-23T00:26:19.281Z,11.17
2018-04-23T00:28:46.841Z,8.73
2018-04-23T00:31:14.473Z,7.90
2018-04-23T00:33:42.032Z,8.27
2018-04-23T00:36:09.670Z,7.30
2018-04-23T00:38:37.297Z,8.50
2018-04-23T00:41:04.857Z,7.97
2018-04-23T00:43:32.492Z,7.33
2018-04-23T00:46:00.043Z,7.10
2018-04-23T00:48:27.610Z,6.30
2018-04-23T00:50:55.230Z,6.40
2018-04-23T00:53:34.629Z,5.80
2018-04-23T00:56:02.245Z,5.90
2018-04-23T00:58:29.813Z,5.47
2018-04-23T01:00:57.394Z,5.83
2018-04-23T01:03:24.960Z,6.63
2018-04-23T01:05:52.532Z,7.03
2018-04-23T01:08:20.079Z,6.63
2018-04-23T01:10:47.721Z,6.53
2018-04-23T01:13:15.294Z,5.97
2018-04-23T01:15:42.943Z,5.73
2018-04-23T01:18:10.517Z,5.93
2018-04-23T01:20:38.089Z,5.60
2018-04-23T01:23:05.648Z,7.10
2018-04-23T01:25:33.291Z,5.73
2018-04-23T01:28:00.853Z,6.97
2018-04-23T01:30:28.522Z,6.73
2018-04-23T01:32:56.145Z,6.23
2018-04-23T01:35:23.704Z,7.60
2018-04-23T01:37:51.308Z,5.57
2018-04-23T01:40:18.850Z,6.87
2018-04-23T01:42:46.464Z,6.20
2018-04-23T01:45:14.093Z,6.10
2018-04-23T01:47:41.649Z,6.53
2018-04-23T01:50:09.228Z,9.87
2018-04-23T01:52:36.852Z,10.63
2018-04-23T01:55:04.473Z,8.07
2018-04-23T01:57:32.037Z,9.03
2018-04-23T01:59:59.604Z,8.40
2018-04-23T02:02:27.237Z,6.90
2018-04-23T02:04:54.865Z,6.43
2018-04-23T02:07:22.535Z,6.00
2018-04-23T02:09:50.110Z,6.40
2018-04-23T02:12:17.673Z,7.57
2018-04-23T02:14:45.244Z,7.57
2018-04-23T02:17:12.811Z,6.60
2018-04-23T02:19:40.433Z,7.40
2018-04-23T02:22:08.057Z,7.30
2018-04-23T02:24:35.681Z,7.40
2018-04-23T02:27:03.252Z,7.00
2018-04-23T02:29:30.889Z,6.30
2018-04-23T02:31:58.565Z,7.13
2018-04-23T02:34:26.137Z,6.53
2018-04-23T02:36:53.763Z,5.60
2018-04-23T02:39:21.346Z,6.50
2018-04-23T02:41:48.925Z,6.80
2018-04-23T02:44:16.616Z,7.20
2018-04-23T02:46:44.176Z,7.83
2018-04-23T02:49:11.804Z,8.30
2018-04-23T02:51:39.398Z,7.23
2018-04-23T02:54:07.021Z,6.97
2018-04-23T02:56:34.657Z,6.83
2018-04-23T02:59:02.291Z,6.70
2018-04-23T03:01:29.836Z,6.27
2018-04-23T03:03:57.513Z,5.80
2018-04-23T03:06:25.078Z,7.00
2018-04-23T03:08:52.774Z,8.40
2018-04-23T03:11:20.337Z,8.67
2018-04-23T03:13:47.930Z,7.50
2018-04-23T03:16:15.530Z,6.50
2018-04-23T03:18:43.098Z,5.77
2018-04-23T03:21:10.762Z,5.40
2018-04-23T03:23:38.388Z,6.40
2018-04-23T03:26:05.934Z,5.07
2018-04-23T03:28:33.565Z,6.77
2018-04-23T03:31:01.206Z,11.97
2018-04-23T03:33:28.828Z,7.60
2018-04-23T03:35:56.389Z,6.80
2018-04-23T03:38:23.948Z,6.63
2018-04-23T03:40:51.517Z,6.83
2018-04-23T03:43:19.076Z,8.10
2018-04-23T03:45:46.697Z,6.07
2018-04-23T03:48:14.266Z,6.80
2018-04-23T03:50:41.817Z,7.17
2018-04-23T03:53:09.565Z,10.60
2018-04-23T03:55:37.207Z,10.03
2018-04-23T03:58:04.836Z,8.90
2018-04-23T04:00:32.379Z,9.47
2018-04-23T04:02:59.944Z,9.23
2018-04-23T04:05:27.548Z,8.80
2018-04-23T04:07:55.124Z,11.50
2018-04-23T04:10:22.736Z,9.33
2018-04-23T04:13:02.080Z,9.23
2018-04-23T04:15:41.501Z,8.43
2018-04-23T04:21:08.911Z,6.60
2018-04-23T04:23:36.472Z,7.90
2018-04-23T04:26:04.034Z,6.57
2018-04-23T04:28:31.654Z,4.70
2018-04-23T04:30:59.249Z,6.57
2018-04-23T04:33:26.886Z,5.47
2018-04-23T04:35:54.516Z,6.13
2018-04-23T04:38:22.136Z,4.53
2018-04-23T04:40:49.764Z,4.17
2018-04-23T04:43:17.389Z,4.40
2018-04-23T04:45:44.944Z,5.10
2018-04-23T04:48:12.613Z,5.40
2018-04-23T04:50:40.174Z,6.87
2018-04-23T04:53:07.762Z,6.93
2018-04-23T04:55:35.394Z,6.37
2018-04-23T04:58:03.073Z,7.20
2018-04-23T05:00:30.632Z,7.13
2018-04-23T05:02:58.194Z,6.67
2018-04-23T05:05:25.764Z,8.23
2018-04-23T05:07:53.328Z,7.93
2018-04-23T05:10:20.948Z,7.20
2018-04-23T05:12:48.578Z,4.83
2018-04-23T05:15:16.141Z,4.10
2018-04-23T05:17:43.765Z,4.03
2018-04-23T05:20:11.329Z,3.93
2018-04-23T05:22:38.917Z,4.00
2018-04-23T05:25:06.492Z,3.70
2018-04-23T05:27:34.112Z,3.70
2018-04-23T05:30:01.737Z,4.53
2018-04-23T05:32:29.320Z,5.67
2018-04-23T05:34:56.888Z,4.27
2018-04-23T05:37:24.463Z,4.37
2018-04-23T05:39:52.036Z,4.00
2018-04-23T05:42:19.596Z,3.70
2018-04-23T05:44:47.211Z,3.37
2018-04-23T05:47:14.779Z,3.67
2018-04-23T05:49:42.348Z,2.83
2018-04-23T05:52:09.977Z,2.60
2018-04-23T05:54:37.597Z,3.40
2018-04-23T05:57:05.169Z,4.00
2018-04-23T05:59:32.732Z,4.03
2018-04-23T06:02:00.345Z,5.70
2018-04-23T06:04:27.909Z,4.43
2018-04-23T06:06:55.457Z,5.53
2018-04-23T06:09:23.028Z,5.47
2018-04-23T06:11:50.654Z,3.53
2018-04-23T06:14:18.282Z,3.03
2018-04-23T06:16:45.830Z,2.90
2018-04-23T06:19:13.525Z,3.57
2018-04-23T06:21:41.141Z,2.47
2018-04-23T06:24:08.700Z,2.70
2018-04-23T06:26:36.275Z,3.13
2018-04-23T06:29:03.933Z,2.30
2018-04-23T06:31:31.496Z,3.40
2018-04-23T06:33:59.053Z,3.17
2018-04-23T06:36:26.680Z,3.03
2018-04-23T06:38:54.301Z,2.90
2018-04-23T06:41:21.936Z,3.40
2018-04-23T06:43:49.569Z,2.73
2018-04-23T06:46:17.140Z,2.70
2018-04-23T06:48:44.707Z,2.40
2018-04-23T06:51:12.262Z,2.43
2018-04-23T06:53:39.887Z,3.30
2018-04-23T06:56:07.444Z,2.80
2018-04-23T06:58:35.016Z,3.00
2018-04-23T07:01:02.592Z,2.57
2018-04-23T07:03:30.149Z,2.87
2018-04-23T07:05:57.773Z,2.30
2018-04-23T07:08:25.372Z,3.17
2018-04-23T07:10:53.813Z,2.83
2018-04-23T07:13:21.368Z,2.37
2018-04-23T07:15:48.928Z,2.33
2018-04-23T07:18:16.514Z,2.33
2018-04-23T07:20:44.153Z,3.10
2018-04-23T07:23:11.802Z,2.80
2018-04-23T07:25:39.357Z,2.70
2018-04-23T07:28:07.040Z,2.27
2018-04-23T07:30:34.657Z,2.60
2018-04-23T07:33:02.216Z,2.43
2018-04-23T07:35:29.798Z,2.73
2018-04-23T07:37:57.427Z,2.43
2018-04-23T07:40:25.006Z,2.53
2018-04-23T07:42:52.569Z,2.37
2018-04-23T07:45:20.259Z,2.80
2018-04-23T07:47:47.828Z,2.60
2018-04-23T07:50:15.474Z,1.57
2018-04-23T07:52:43.137Z,2.80
2018-04-23T07:55:10.698Z,2.37
2018-04-23T07:57:38.264Z,2.60
2018-04-23T08:00:05.824Z,2.50
2018-04-23T08:02:33.572Z,2.70
2018-04-23T08:05:01.193Z,2.00
2018-04-23T08:07:28.809Z,2.33
2018-04-23T08:09:56.434Z,2.07
2018-04-23T08:12:24.009Z,2.10
2018-04-23T08:14:51.637Z,2.63
2018-04-23T08:17:19.263Z,2.47
2018-04-23T08:19:46.925Z,3.10
2018-04-23T08:22:14.533Z,2.53
2018-04-23T08:24:42.092Z,3.00
2018-04-23T08:27:09.653Z,2.50
2018-04-23T08:29:37.212Z,2.70
2018-04-23T08:32:04.772Z,2.03
2018-04-23T08:34:32.344Z,1.70
2018-04-23T08:37:00.028Z,2.27
2018-04-23T08:39:27.717Z,2.60
2018-04-23T08:41:55.420Z,2.27
2018-04-23T08:44:23.048Z,2.27
2018-04-23T08:46:50.607Z,2.03
2018-04-23T08:49:18.173Z,2.40
2018-04-23T08:51:45.737Z,2.20
2018-04-23T08:54:13.349Z,2.50
2018-04-23T08:56:40.884Z,2.17
2018-04-23T08:59:08.523Z,2.33
2018-04-23T09:01:36.149Z,2.50
2018-04-23T09:04:03.732Z,2.23
2018-04-23T09:06:31.306Z,2.00
2018-04-23T09:08:58.860Z,2.60
2018-04-23T09:11:26.475Z,1.97
2018-04-23T09:13:54.094Z,2.80
2018-04-23T09:16:21.653Z,2.40
2018-04-23T09:18:49.281Z,2.67
2018-04-23T09:21:16.840Z,2.13
2018-04-23T09:23:44.414Z,2.10
2018-04-23T09:26:11.973Z,1.80
2018-04-23T09:28:39.595Z,3.03
2018-04-23T09:31:07.245Z,1.93
2018-04-23T09:33:34.805Z,2.20
2018-04-23T09:36:02.385Z,2.90
2018-04-23T09:38:30.000Z,2.50
2018-04-23T09:40:57.628Z,2.40
2018-04-23T09:43:25.170Z,2.47
2018-04-23T09:45:52.779Z,2.10
2018-04-23T09:48:20.345Z,1.90
2018-04-23T09:50:47.905Z,2.30
2018-04-23T09:53:15.473Z,2.33
2018-04-23T09:55:43.040Z,3.00
2018-04-23T09:58:10.725Z,2.70
2018-04-23T10:00:38.493Z,2.77
2018-04-23T10:03:09.923Z,2.43
2018-04-23T10:05:37.564Z,2.33
2018-04-23T10:08:05.114Z,2.87
2018-04-23T10:10:32.748Z,2.67
2018-04-23T10:13:00.367Z,2.53
2018-04-23T10:15:27.925Z,2.73
2018-04-23T10:17:55.509Z,2.10
2018-04-23T10:20:23.087Z,3.00
2018-04-23T10:22:50.732Z,2.87
2018-04-23T10:25:18.296Z,3.10
2018-04-23T10:27:45.986Z,2.47
2018-04-23T10:30:13.566Z,2.97
2018-04-23T10:32:41.119Z,3.23
2018-04-23T10:35:08.680Z,3.97
2018-04-23T10:37:36.304Z,2.53
2018-04-23T10:40:03.898Z,2.10
2018-04-23T10:42:31.513Z,2.10
2018-04-23T10:44:59.134Z,2.57
2018-04-23T10:47:26.757Z,3.17
2018-04-23T10:49:54.379Z,3.00
2018-04-23T10:52:22.028Z,2.13
2018-04-23T10:54:49.600Z,2.43
2018-04-23T10:57:17.183Z,2.03
2018-04-23T10:59:44.764Z,3.03
2018-04-23T11:02:12.390Z,2.35
2018-04-23T11:04:39.945Z,1.90
2018-04-23T11:07:07.568Z,1.83
2018-04-23T11:09:35.141Z,2.62
2018-04-23T11:12:02.709Z,1.80
2018-04-23T11:14:30.290Z,1.92
2018-04-23T11:16:57.918Z,2.12
2018-04-23T11:19:25.546Z,1.67
2018-04-23T11:21:53.112Z,1.75
2018-04-23T11:24:20.657Z,1.90
2018-04-23T11:26:48.224Z,1.75
2018-04-23T11:29:15.871Z,1.90
2018-04-23T11:31:43.443Z,2.28
2018-04-23T11:34:11.018Z,2.10
2018-04-23T11:36:38.697Z,1.42
2018-04-23T11:39:08.241Z,2.42
2018-04-23T11:41:35.811Z,1.87
2018-04-23T11:44:03.438Z,1.55
2018-04-23T11:46:31.022Z,1.65
2018-04-23T11:48:58.706Z,1.92
2018-04-23T11:51:26.329Z,1.90
2018-04-23T11:53:53.894Z,1.83
2018-04-23T11:56:21.469Z,2.20
2018-04-23T11:58:49.091Z,1.80
2018-04-23T12:01:16.660Z,1.60
2018-04-23T12:03:44.225Z,1.50
2018-04-23T12:06:11.834Z,2.12
2018-04-23T12:08:39.399Z,2.30
2018-04-23T12:11:07.046Z,1.70
2018-04-23T12:13:34.654Z,1.75
2018-04-23T12:16:02.281Z,1.83
2018-04-23T12:18:30.147Z,2.00
2018-04-23T12:20:57.768Z,1.58
2018-04-23T12:23:25.388Z,1.70
2018-04-23T12:25:52.949Z,2.17
2018-04-23T12:28:20.517Z,2.22
2018-04-23T12:30:48.433Z,1.92
2018-04-23T12:33:15.997Z,2.35
2018-04-23T12:35:43.591Z,1.90
2018-04-23T12:38:11.212Z,2.10
2018-04-23T12:40:38.830Z,1.62
2018-04-23T12:43:06.396Z,1.83
2018-04-23T12:45:34.006Z,2.03
2018-04-23T12:48:01.568Z,1.55
2018-04-23T12:50:29.124Z,1.73
2018-04-23T12:52:56.741Z,1.90
2018-04-23T12:55:24.293Z,1.65
2018-04-23T12:57:51.848Z,1.80
2018-04-23T13:00:19.479Z,1.55
2018-04-23T13:02:47.041Z,1.50
2018-04-23T13:05:14.681Z,3.17
2018-04-23T13:07:42.242Z,1.80
2018-04-23T13:10:09.927Z,1.98
2018-04-23T13:12:37.496Z,1.70
2018-04-23T13:15:05.105Z,1.98
2018-04-23T13:17:32.676Z,1.98
2018-04-23T13:20:00.293Z,1.77
2018-04-23T13:22:27.889Z,1.60
2018-04-23T13:24:55.450Z,2.63
2018-04-23T13:27:23.065Z,2.67
2018-04-23T13:29:50.620Z,3.33
2018-04-23T13:32:18.241Z,2.83
2018-04-23T13:34:45.870Z,2.10
2018-04-23T13:37:13.501Z,2.57
2018-04-23T13:39:41.126Z,2.57
2018-04-23T13:42:08.792Z,2.70
2018-04-23T13:44:36.404Z,2.00
2018-04-23T13:47:03.956Z,2.60
2018-04-23T13:49:31.528Z,2.50
2018-04-23T13:51:59.097Z,2.20
2018-04-23T13:54:26.652Z,2.10
2018-04-23T13:56:54.281Z,2.33
2018-04-23T13:59:21.909Z,2.37
2018-04-23T14:01:49.525Z,1.70
2018-04-23T14:04:17.084Z,2.00
2018-04-23T14:06:44.706Z,2.07
2018-04-23T14:09:12.280Z,2.27
2018-04-23T14:11:39.856Z,3.00
2018-04-23T14:14:07.487Z,2.40
2018-04-23T14:16:35.072Z,2.77
2018-04-23T14:19:02.754Z,2.30
2018-04-23T14:21:30.374Z,1.90
2018-04-23T14:23:58.049Z,2.20
2018-04-23T14:26:25.603Z,2.50
2018-04-23T14:28:53.240Z,2.83
2018-04-23T14:31:20.816Z,2.07
2018-04-23T14:33:48.416Z,2.20
2018-04-23T14:36:16.051Z,3.80
2018-04-23T14:38:43.618Z,1.87
2018-04-23T14:41:11.237Z,1.87
2018-04-23T14:43:38.801Z,2.30
2018-04-23T14:46:06.361Z,1.80
2018-04-23T14:48:33.929Z,2.00
2018-04-23T14:51:01.549Z,2.17
2018-04-23T14:53:29.163Z,2.53
2018-04-23T14:55:56.729Z,1.90
2018-04-23T14:58:24.421Z,2.43
2018-04-23T15:00:52.059Z,2.00
2018-04-23T15:03:19.620Z,1.73
2018-04-23T15:05:47.188Z,2.60
2018-04-23T15:08:14.748Z,2.57
2018-04-23T15:10:42.383Z,1.63
2018-04-23T15:13:09.940Z,2.30
2018-04-23T15:15:37.528Z,2.10
2018-04-23T15:18:05.157Z,2.03
2018-04-23T15:20:32.716Z,2.23
2018-04-23T15:23:00.328Z,2.10
2018-04-23T15:25:27.981Z,2.53
2018-04-23T15:27:55.602Z,2.00
2018-04-23T15:30:23.148Z,2.23
2018-04-23T15:32:50.715Z,1.90
2018-04-23T15:35:18.309Z,2.17
2018-04-23T15:37:45.864Z,2.40
2018-04-23T15:40:13.426Z,3.13
2018-04-23T15:42:41.012Z,2.90
2018-04-23T15:45:08.617Z,2.67
2018-04-23T15:47:36.188Z,3.00
2018-04-23T15:50:03.750Z,3.20
2018-04-23T15:52:31.312Z,2.67
2018-04-23T15:54:58.879Z,2.43
2018-04-23T15:57:26.506Z,2.60
2018-04-23T15:59:54.128Z,2.60
2018-04-23T16:02:21.745Z,2.13
2018-04-23T16:04:49.398Z,1.90
2018-04-23T16:07:16.997Z,2.27
2018-04-23T16:09:44.563Z,2.70
2018-04-23T16:12:12.189Z,2.50
2018-04-23T16:14:39.752Z,2.60
2018-04-23T16:17:07.377Z,2.63
2018-04-23T16:19:34.920Z,2.97
2018-04-23T16:22:02.476Z,2.90
2018-04-23T16:24:30.101Z,2.80
2018-04-23T16:26:57.673Z,3.60
2018-04-23T16:29:25.244Z,3.90
2018-04-23T16:31:52.812Z,3.60
2018-04-23T16:34:20.430Z,4.93
2018-04-23T16:36:48.003Z,3.50
2018-04-23T16:39:15.549Z,3.30
2018-04-23T16:41:43.113Z,3.30
2018-04-23T16:44:10.670Z,3.37
2018-04-23T16:46:38.236Z,4.60
2018-04-23T16:49:05.792Z,3.50
2018-04-23T16:51:33.461Z,3.20
2018-04-23T16:54:01.085Z,3.83
2018-04-23T16:56:28.754Z,3.60
2018-04-23T16:58:56.324Z,3.20
2018-04-23T17:01:23.912Z,4.30
2018-04-23T17:03:51.480Z,3.47
2018-04-23T17:06:19.040Z,3.30
2018-04-23T17:08:46.741Z,3.60
2018-04-23T17:11:14.304Z,3.33
2018-04-23T17:13:41.926Z,3.50
2018-04-23T17:16:09.494Z,4.27
2018-04-23T17:18:37.125Z,4.90
2018-04-23T17:21:04.779Z,5.40
2018-04-23T17:23:32.392Z,6.00
2018-04-23T17:26:00.021Z,5.90
2018-04-23T17:28:27.642Z,6.30
2018-04-23T17:30:55.297Z,6.07
2018-04-23T17:33:22.922Z,5.33
2018-04-23T17:35:50.486Z,4.60
2018-04-23T17:38:18.130Z,4.77
2018-04-23T17:40:45.694Z,4.17
2018-04-23T17:43:13.307Z,3.90
2018-04-23T17:45:40.952Z,4.40
2018-04-23T17:48:08.577Z,4.67
2018-04-23T17:50:36.146Z,5.13
2018-04-23T17:53:03.700Z,5.13
2018-04-23T17:55:31.284Z,4.60
2018-04-23T17:57:58.859Z,4.80
2018-04-23T18:00:26.478Z,4.97
2018-04-23T18:02:54.046Z,5.90
2018-04-23T18:05:21.660Z,5.80
2018-04-23T18:07:49.232Z,5.50
2018-04-23T18:10:16.789Z,4.73
2018-04-23T18:12:44.464Z,5.13
2018-04-23T18:15:12.016Z,3.80
2018-04-23T18:17:39.630Z,3.60
2018-04-23T18:20:07.162Z,4.00
2018-04-23T18:22:34.786Z,4.43
2018-04-23T18:25:02.421Z,4.00
2018-04-23T18:27:30.040Z,3.67
2018-04-23T18:29:57.660Z,3.43
2018-04-23T18:32:25.228Z,4.00
2018-04-23T18:34:52.811Z,4.00
2018-04-23T18:37:20.382Z,4.13
2018-04-23T18:39:47.949Z,4.77
2018-04-23T18:42:15.513Z,4.13
2018-04-23T18:44:43.073Z,4.30
2018-04-23T18:47:10.759Z,4.83
2018-04-23T18:49:38.324Z,4.33
2018-04-23T18:52:05.891Z,4.53
2018-04-23T18:54:33.466Z,4.53
2018-04-23T18:57:01.035Z,4.57
2018-04-23T18:59:28.714Z,4.97
2018-04-23T19:01:56.281Z,6.83
2018-04-23T19:04:23.901Z,4.40
2018-04-23T19:06:51.449Z,5.03
2018-04-23T19:09:19.015Z,5.70
2018-04-23T19:11:46.644Z,4.70
2018-04-23T19:14:14.210Z,3.80
2018-04-23T19:16:41.778Z,4.07
2018-04-23T19:19:09.356Z,4.67
2018-04-23T19:21:36.913Z,5.77
2018-04-23T19:24:04.537Z,4.97
2018-04-23T19:26:32.097Z,5.13
2018-04-23T19:28:59.657Z,4.97
2018-04-23T19:31:27.283Z,4.20
2018-04-23T19:33:54.817Z,4.50
2018-04-23T19:36:22.370Z,5.03
2018-04-23T19:38:49.911Z,4.97
2018-04-23T19:41:17.582Z,4.80
2018-04-23T19:43:45.140Z,6.37
2018-04-23T19:46:12.703Z,6.83
2018-04-23T19:48:40.272Z,5.77
2018-04-23T19:51:07.845Z,4.87
2018-04-23T19:53:35.468Z,4.00
2018-04-23T19:56:04.105Z,4.67
2018-04-23T19:58:31.696Z,4.50
2018-04-23T20:00:59.267Z,4.87
2018-04-23T20:03:26.839Z,5.07
2018-04-23T20:05:54.410Z,4.60
2018-04-23T20:08:21.970Z,5.43
2018-04-23T20:10:49.675Z,4.43
2018-04-23T20:13:17.311Z,4.27
2018-04-23T20:15:44.879Z,5.07
2018-04-23T20:18:12.458Z,4.60
2018-04-23T20:20:40.095Z,4.33
2018-04-23T20:23:07.774Z,4.00
2018-04-23T20:25:35.340Z,3.30
2018-04-23T20:28:02.957Z,3.20
2018-04-23T20:30:30.518Z,4.10
2018-04-23T20:32:58.081Z,3.53
2018-04-23T20:35:25.648Z,3.93
2018-04-23T20:37:53.210Z,3.83
2018-04-23T20:40:20.777Z,3.70
2018-04-23T20:42:48.337Z,3.50
2018-04-23T20:45:15.952Z,3.73
2018-04-23T20:47:43.495Z,3.30
2018-04-23T20:50:11.125Z,3.57
2018-04-23T20:52:38.689Z,3.53
2018-04-23T20:55:06.253Z,3.70
2018-04-23T20:57:33.860Z,3.90
2018-04-23T21:00:01.483Z,3.20
2018-04-23T21:02:29.173Z,2.97
2018-04-23T21:04:56.835Z,4.13
2018-04-23T21:07:24.403Z,4.30
2018-04-23T21:09:52.031Z,4.27
2018-04-23T21:12:19.665Z,4.33
2018-04-23T21:14:47.232Z,4.70
2018-04-23T21:17:14.794Z,3.73
2018-04-23T21:19:42.417Z,4.10
2018-04-23T21:22:09.986Z,4.20
2018-04-23T21:24:37.553Z,4.30
2018-04-23T21:27:05.160Z,4.43
2018-04-23T21:29:32.724Z,4.30
2018-04-23T21:32:00.294Z,3.30
2018-04-23T21:34:27.866Z,4.07
2018-04-23T21:36:55.491Z,4.30
2018-04-23T21:39:23.053Z,2.90
2018-04-23T21:41:50.681Z,3.60
2018-04-23T21:44:18.248Z,3.43
2018-04-23T21:46:45.811Z,3.53
2018-04-23T21:49:13.448Z,3.87
2018-04-23T21:51:41.008Z,4.10
2018-04-23T21:54:08.606Z,3.80
2018-04-23T21:56:36.161Z,3.03
2018-04-23T21:59:03.730Z,3.10
2018-04-23T22:01:31.368Z,4.57
2018-04-23T22:03:58.989Z,4.40
2018-04-23T22:06:26.626Z,4.30
2018-04-23T22:08:54.185Z,5.47
2018-04-23T22:11:21.800Z,3.70
2018-04-23T22:13:49.355Z,3.00
2018-04-23T22:16:16.913Z,2.17
2018-04-23T22:18:44.543Z,2.77
2018-04-23T22:21:12.109Z,2.90
2018-04-23T22:23:39.734Z,2.70
2018-04-23T22:26:07.288Z,2.97
2018-04-23T22:28:34.900Z,2.50
2018-04-23T22:31:02.437Z,2.23
2018-04-23T22:33:30.065Z,2.97
2018-04-23T22:35:57.693Z,2.17
2018-04-23T22:38:25.252Z,2.70
2018-04-23T22:40:52.884Z,3.00
2018-04-23T22:43:20.449Z,2.60
2018-04-23T22:45:48.121Z,3.10
2018-04-23T22:48:15.705Z,2.07
2018-04-23T22:50:43.258Z,3.07
2018-04-23T22:53:10.828Z,2.83
2018-04-23T22:55:38.396Z,3.10
2018-04-23T22:58:06.023Z,2.90
2018-04-23T23:00:33.658Z,3.30
2018-04-23T23:03:01.309Z,3.30
2018-04-23T23:05:28.869Z,3.20
2018-04-23T23:07:56.432Z,2.63
2018-04-23T23:10:24.006Z,3.10
2018-04-23T23:12:51.575Z,3.27
2018-04-23T23:15:19.185Z,3.27
2018-04-23T23:17:46.812Z,3.47
2018-04-23T23:23:12.636Z,3.37
2018-04-23T23:25:40.309Z,3.60
2018-04-23T23:28:07.864Z,3.70
2018-04-23T23:30:35.495Z,3.63
2018-04-23T23:33:03.060Z,2.63
2018-04-23T23:35:30.620Z,3.00
2018-04-23T23:37:58.187Z,2.67
2018-04-23T23:40:25.750Z,3.20
2018-04-23T23:42:53.368Z,3.07
2018-04-23T23:45:20.924Z,3.17
2018-04-23T23:47:48.491Z,3.30
2018-04-23T23:50:16.176Z,2.60
2018-04-23T23:52:43.730Z,2.60
2018-04-23T23:55:11.374Z,3.20
2018-04-23T23:57:38.932Z,2.93
